Latest Weather Observations for Swanbourne

IDW60801

Issued at 10:04 am WST Thursday 19 January 2017 (issued every 30 minutes, with the page automatically refreshed every 10 minutes)

About weather observations | Map of weather stations | Latest weather observations for WA | Other Formats
Station Details ID: 009215 Name: SWANBOURNE Lat: -31.96 Lon: 115.76 Height: 40.96 m
Data from the previous 72 hours. | See also: Recent months at Swanbourne
Date/Time
WST
Temp
°C
App
Temp
°C
Dew
Point
°C
Rel
Hum
%
Delta-T
°C
Wind Press
QNH
hPa
Press
MSL
hPa
Rain since
9am
mm
Dir  Spd
km/h
Gust
km/h
Spd
kts
Gust
kts
19/10:00am 20.5 15.0 9.1 48 6.0 SSW 28 43 15 23 - - 0.0
19/09:30am 20.6 14.9 11.0 54 5.3 SSW 32 43 17 23 - - 0.0
19/09:18am 19.6 14.6 10.9 57 4.7 SSW 28 48 15 26 - - 0.0
19/09:00am 19.4 13.9 11.7 61 4.3 SSW 32 44 17 24 - - 0.0
19/08:30am 19.0 14.4 11.1 60 4.3 SSW 26 39 14 21 - - 0.0
19/08:00am 20.4 15.8 12.4 60 4.5 SSW 28 43 15 23 - - 0.0
19/07:30am 19.5 16.3 13.0 66 3.7 SSW 22 35 12 19 - - 0.0
19/07:00am 19.2 16.1 11.7 62 4.1 SSW 19 32 10 17 - - 0.0
19/06:30am 18.7 15.4 11.5 63 4.0 SSW 20 32 11 17 - - 0.0
19/06:00am 18.4 14.5 10.8 61 4.1 S 22 39 12 21 - - 0.0
19/05:30am 18.2 14.1 11.3 64 3.8 S 24 39 13 21 - - 0.0
19/05:00am 18.2 12.8 11.0 63 3.9 S 30 44 16 24 - - 0.0
19/04:30am 18.2 12.6 11.5 65 3.7 S 32 46 17 25 - - 0.0
19/04:15am 18.2 13.4 11.7 66 3.6 SSW 28 46 15 25 - - 0.0
19/04:00am 18.1 13.0 11.9 67 3.4 SSW 30 44 16 24 - - 0.0
19/03:30am 17.9 13.1 11.5 66 3.5 S 28 43 15 23 - - 0.0
19/03:00am 18.1 13.5 12.3 69 3.2 SSW 28 43 15 23 - - 0.0
19/02:30am 18.3 13.4 12.7 70 3.1 SSW 30 43 16 23 - - 0.0
19/02:00am 18.6 14.5 13.7 73 2.8 SSW 28 44 15 24 - - 0.0
19/01:30am 18.8 15.5 13.9 73 2.8 S 24 43 13 23 - - 0.0
19/01:00am 18.9 15.4 14.6 76 2.5 SSW 26 39 14 21 - - 0.0
19/12:30am 19.2 16.4 15.3 78 2.3 SSW 24 35 13 19 - - 0.0
19/12:00am 19.0 15.3 15.1 78 2.3 SSW 28 46 15 25 - - 0.0
 
Date/Time
WST
Temp
°C
App
Temp
°C
Dew
Point
°C
Rel
Hum
%
Delta-T
°C
Wind Press
QNH
hPa
Press
MSL
hPa
Rain since
9am
mm
Dir  Spd
km/h
Gust
km/h
Spd
kts
Gust
kts
18/11:57pm 19.0 15.3 15.1 78 2.3 SSW 28 46 15 25 - - 0.0
18/11:30pm 19.0 14.8 14.7 76 2.5 SSW 30 46 16 25 - - 0.0
18/11:00pm 19.0 14.2 14.7 76 2.5 SSW 33 48 18 26 - - 0.0
18/10:51pm 19.2 14.8 15.1 77 2.4 SSW 32 50 17 27 - - 0.0
18/10:30pm 19.4 15.1 15.3 77 2.4 SSW 32 48 17 26 - - 0.0
18/10:00pm 19.6 16.2 15.9 79 2.2 SSW 28 46 15 25 - - 0.0
18/09:30pm 19.8 16.1 15.9 78 2.3 SSW 30 44 16 24 - - 0.0
18/09:00pm 19.9 17.0 16.2 79 2.2 S 26 44 14 24 - - 0.0
18/08:35pm 19.9 16.3 16.2 79 2.2 SSW 30 48 16 26 - - 0.0
18/08:30pm 20.1 15.9 16.3 79 2.3 SSW 33 48 18 26 - - 0.0
18/08:19pm 20.1 16.9 16.3 79 2.3 SSW 28 48 15 26 - - 0.0
18/08:00pm 20.6 16.6 16.2 76 2.6 SSW 32 46 17 25 - - 0.0
18/07:30pm 21.1 18.3 15.4 70 3.4 S 24 41 13 22 - - 0.0
18/07:00pm 21.2 18.6 16.0 72 3.1 S 24 39 13 21 - - 0.0
18/06:30pm 21.2 18.8 16.4 74 2.9 SSW 24 37 13 20 - - 0.0
18/06:00pm 21.3 18.3 16.7 75 2.8 SSW 28 41 15 22 - - 0.0
18/05:30pm 21.9 20.3 17.5 76 2.7 SSW 22 37 12 20 - - 0.0
18/05:00pm 22.3 20.2 17.2 73 3.1 SSW 24 35 13 19 - - 0.0
18/04:30pm 23.2 21.6 17.4 70 3.6 SSW 22 33 12 18 - - 0.0
18/04:00pm 24.1 21.6 17.1 65 4.3 SSW 26 39 14 21 - - 0.0
18/03:30pm 24.3 21.5 17.3 65 4.3 SSW 28 39 15 21 - - 0.0
18/03:00pm 25.6 23.8 17.8 62 4.9 SSW 24 35 13 19 - - 0.0
18/02:30pm 27.4 25.9 14.1 44 8.0 SW 15 24 8 13 - - 0.0
18/02:00pm 28.9 26.3 13.2 38 9.3 SW 19 26 10 14 - - 0.0
18/01:30pm 31.0 28.7 7.5 23 12.8 SSE 9 17 5 9 - - 0.0
18/01:00pm 31.1 28.8 5.5 20 13.5 ESE 7 11 4 6 - - 0.0
18/12:30pm 29.7 27.4 7.6 25 12.0 ESE 9 19 5 10 - - 0.0
18/12:00pm 29.6 27.9 9.7 29 11.2 E 9 17 5 9 - - 0.0
18/11:30am 29.0 26.4 10.6 32 10.5 E 15 20 8 11 - - 0.0
18/11:00am 28.8 25.9 10.9 33 10.2 ENE 17 28 9 15 - - 0.0
18/10:30am 28.4 24.8 10.6 33 10.1 ENE 20 32 11 17 - - 0.0
18/10:00am 26.6 22.7 10.7 37 9.0 E 22 33 12 18 - - 0.0
18/09:30am 25.4 21.0 10.4 39 8.4 ENE 24 39 13 21 - - 0.0
18/09:00am 24.1 19.6 10.0 41 7.7 ENE 24 43 13 23 - - 0.0
18/08:30am 22.7 17.4 9.8 44 7.0 ENE 28 41 15 22 - - 0.0
18/08:06am 21.7 16.3 9.6 46 6.5 ENE 28 46 15 25 - - 0.0
18/08:00am 21.6 16.5 9.2 45 6.6 ENE 26 43 14 23 - - 0.0
18/07:30am 20.1 14.9 8.8 48 5.9 E 26 39 14 21 - - 0.0
18/07:00am 19.0 13.3 8.4 50 5.5 E 28 44 15 24 - - 0.0
18/06:30am 18.3 12.2 8.3 52 5.2 E 30 48 16 26 - - 0.0
18/06:00am 17.7 11.9 8.0 53 4.9 E 28 50 15 27 - - 0.0
18/05:55am 17.7 11.9 8.0 53 4.9 E 28 50 15 27 - - 0.0
18/05:30am 17.5 11.4 8.1 54 4.8 E 30 43 16 23 - - 0.0
18/05:00am 17.8 11.7 8.1 53 5.0 E 30 50 16 27 - - 0.0
18/04:38am 18.2 12.1 8.2 52 5.1 E 30 50 16 27 - - 0.0
18/04:30am 18.4 12.7 8.4 52 5.2 E 28 44 15 24 - - 0.0
18/04:00am 18.8 13.1 8.5 51 5.3 E 28 39 15 21 - - 0.0
18/03:30am 19.3 13.2 8.3 49 5.7 E 30 43 16 23 - - 0.0
18/03:00am 19.6 14.7 8.3 48 5.9 E 24 35 13 19 - - 0.0
18/02:30am 19.9 15.2 7.9 46 6.2 E 22 35 12 19 - - 0.0
18/02:00am 20.6 15.1 7.6 43 6.7 E 26 44 14 24 - - 0.0
18/01:30am 21.4 15.7 6.9 39 7.4 E 26 44 14 24 - - 0.0
18/01:00am 22.1 17.1 6.3 36 8.0 E 22 37 12 20 - - 0.0
18/12:30am 23.0 17.4 5.4 32 8.8 E 24 37 13 20 - - 0.0
18/12:00am 23.5 18.3 5.4 31 9.1 E 22 33 12 18 - - 0.0
 
Date/Time
WST
Temp
°C
App
Temp
°C
Dew
Point
°C
Rel
Hum
%
Delta-T
°C
Wind Press
QNH
hPa
Press
MSL
hPa
Rain since
9am
mm
Dir  Spd
km/h
Gust
km/h
Spd
kts
Gust
kts
17/11:30pm 22.9 18.5 6.6 35 8.4 E 19 30 10 16 - - 0.0
17/11:00pm 21.3 19.2 11.1 52 5.6 ESE 13 20 7 11 - - 0.0
17/10:30pm 20.5 19.6 12.7 61 4.4 ESE 9 11 5 6 - - 0.0
17/10:00pm 20.6 19.9 13.3 63 4.2 SE 9 11 5 6 - - 0.0
17/09:30pm 20.7 21.0 15.0 70 3.4 SE 7 9 4 5 - - 0.0
17/09:00pm 21.0 21.5 15.1 69 3.5 SSE 6 9 3 5 - - 0.0
17/08:30pm 21.4 20.7 15.3 68 3.6 S 13 19 7 10 - - 0.0
17/08:00pm 21.4 20.2 15.0 67 3.8 S 15 26 8 14 - - 0.0
17/07:30pm 21.5 19.7 14.4 64 4.2 S 17 26 9 14 - - 0.0
17/07:00pm 22.0 19.8 14.4 62 4.5 S 19 33 10 18 - - 0.0
17/06:30pm 22.3 19.1 14.2 60 4.7 SSW 24 39 13 21 - - 0.0
17/06:00pm 22.7 19.3 13.7 56 5.2 SSW 24 35 13 19 - - 0.0
17/05:30pm 22.9 18.5 14.2 58 5.1 SSW 30 43 16 23 - - 0.0
17/05:00pm 23.6 19.4 13.5 53 5.9 SSW 28 41 15 22 - - 0.0
17/04:30pm 23.3 19.2 14.8 59 5.1 SSW 30 41 16 22 - - 0.0
17/04:00pm 23.3 19.2 14.8 59 5.1 SSW 30 39 16 21 - - 0.0
17/03:30pm 23.5 19.6 14.5 57 5.3 SSW 28 43 15 23 - - 0.0
17/03:00pm 23.8 18.9 13.6 52 6.0 SSW 32 46 17 25 - - 0.0
17/02:30pm 23.8 19.6 13.6 52 6.0 SSW 28 41 15 22 - - 0.0
17/02:00pm 24.8 20.3 12.7 47 7.0 SW 28 39 15 21 - - 0.0
17/01:30pm 27.7 24.3 9.0 31 10.3 SSE 17 26 9 14 - - 0.0
17/01:00pm 28.3 26.5 9.6 31 10.4 SE 9 20 5 11 - - 0.0
17/12:30pm 26.3 22.9 9.2 34 9.4 SE 17 26 9 14 - - 0.0
17/12:00pm 25.4 22.0 9.3 36 8.8 SSE 17 30 9 16 - - 0.0
17/11:30am 25.9 23.4 9.7 36 8.9 SE 13 24 7 13 - - 0.0
17/11:00am 24.2 21.3 9.8 40 7.9 SE 15 22 8 12 - - 0.0
17/10:30am 23.6 20.7 9.6 41 7.6 ESE 15 28 8 15 - - 0.0
17/10:00am 23.2 20.3 9.6 42 7.4 ESE 15 24 8 13 - - 0.0
17/09:30am 22.1 19.1 9.3 44 6.9 ESE 15 26 8 14 - - 0.0
17/09:00am 21.6 18.1 8.8 44 6.8 ESE 17 28 9 15 - - 0.0
17/08:30am 20.4 16.5 8.7 47 6.2 E 19 30 10 16 - - 0.0
17/08:00am 19.6 16.7 9.5 52 5.4 ESE 15 26 8 14 - - 0.0
17/07:30am 19.3 16.5 10.0 55 5.0 ESE 15 30 8 16 - - 0.0
17/07:00am 17.5 14.5 9.4 59 4.2 SE 15 30 8 16 - - 0.0
17/06:30am 17.2 15.1 9.6 61 4.0 SE 11 19 6 10 - - 0.0
17/06:00am 16.9 15.1 9.6 62 3.8 ESE 9 17 5 9 - - 0.0
17/05:30am 16.5 14.3 9.2 62 3.8 ESE 11 22 6 12 - - 0.0
17/05:00am 16.6 13.6 9.1 61 3.9 SE 15 28 8 15 - - 0.0
17/04:30am 16.7 13.3 9.1 61 3.9 SE 17 30 9 16 - - 0.0
17/04:00am 17.0 13.2 9.2 60 4.1 SE 19 32 10 17 - - 0.0
17/03:30am 17.3 14.0 9.5 60 4.1 SE 17 30 9 16 - - 0.0
17/03:00am 17.7 14.0 9.3 58 4.4 SE 19 35 10 19 - - 0.0
17/02:30am 18.1 14.4 9.5 57 4.5 ESE 19 32 10 17 - - 0.0
17/02:00am 18.3 15.3 9.4 56 4.7 SE 15 24 8 13 - - 0.0
17/01:30am 17.8 15.6 9.2 57 4.5 SE 11 17 6 9 - - 0.0
17/01:00am 18.1 15.8 8.9 55 4.8 SE 11 20 6 11 - - 0.0
17/12:30am 18.6 16.8 9.4 55 4.8 SSE 9 17 5 9 - - 0.0
17/12:00am 18.7 15.9 8.7 52 5.2 SSE 13 19 7 10 - - 0.0
 
Date/Time
WST
Temp
°C
App
Temp
°C
Dew
Point
°C
Rel
Hum
%
Delta-T
°C
Wind Press
QNH
hPa
Press
MSL
hPa
Rain since
9am
mm
Dir  Spd
km/h
Gust
km/h
Spd
kts
Gust
kts
16/11:30pm 19.2 15.6 8.5 50 5.6 SSE 17 22 9 12 - - 0.0
16/11:00pm 19.7 16.6 9.0 50 5.6 SSE 15 26 8 14 - - 0.0
16/10:30pm 20.3 16.3 9.2 49 5.9 S 20 32 11 17 - - 0.0
16/10:00pm 20.5 16.9 10.6 53 5.4 S 20 35 11 19 - - 0.0
16/09:30pm 20.4 17.2 11.9 58 4.7 S 20 41 11 22 - - 0.0
16/09:03pm 20.6 16.1 12.6 60 4.5 S 28 46 15 25 - - 0.0
16/09:00pm 20.5 16.9 13.0 62 4.3 S 24 46 13 25 - - 0.0
16/08:30pm 20.5 15.5 12.2 59 4.7 S 30 44 16 24 - - 0.0
16/08:00pm 20.6 15.0 12.1 58 4.8 SSW 33 46 18 25 - - 0.0
16/07:44pm 20.5 15.9 12.2 59 4.7 SSW 28 46 15 25 - - 0.0
16/07:30pm 20.3 15.3 13.5 65 3.9 SSW 32 50 17 27 - - 0.0
16/07:00pm 20.6 15.4 12.8 61 4.4 SSW 32 46 17 25 - - 0.0
16/06:30pm 21.2 15.7 12.3 57 5.0 SSW 33 46 18 25 - - 0.0
16/06:02pm 21.7 16.4 12.5 56 5.2 SSW 32 50 17 27 - - 0.0
16/06:00pm 21.6 16.0 12.2 55 5.3 SSW 33 50 18 27 - - 0.0
16/05:37pm 22.0 16.2 11.4 51 5.9 SSW 33 54 18 29 - - 0.0
16/05:30pm 22.0 16.0 12.0 53 5.6 SSW 35 52 19 28 - - 0.0
16/05:00pm 22.6 17.1 12.3 52 5.8 SSW 33 50 18 27 - - 0.0
16/04:32pm 22.2 15.9 12.2 53 5.7 SSW 37 56 20 30 - - 0.0
16/04:30pm 22.2 15.9 12.2 53 5.7 SSW 37 54 20 29 - - 0.0
16/04:04pm 22.6 17.3 14.2 59 4.9 SSW 35 54 19 29 - - 0.0
16/04:00pm 22.3 16.5 13.9 59 4.9 SSW 37 54 20 29 - - 0.0
16/03:30pm 22.3 16.7 13.4 57 5.1 SSW 35 57 19 31 - - 0.0
16/03:00pm 22.6 17.7 14.4 60 4.8 SSW 33 56 18 30 - - 0.0
16/02:30pm 23.1 18.7 15.2 61 4.7 SSW 32 52 17 28 - - 0.0
16/02:08pm 22.9 18.5 15.2 62 4.6 SSW 32 50 17 27 - - 0.0
16/02:00pm 22.2 17.1 14.8 63 4.4 SSW 35 54 19 29 - - 0.0
16/01:30pm 22.9 18.3 14.5 59 5.0 SSW 32 50 17 27 - - 0.0
16/01:27pm 23.4 18.7 14.4 57 5.3 SSW 32 50 17 27 - - 0.0
16/01:00pm 22.6 17.5 13.1 55 5.5 SSW 32 46 17 25 - - 0.0
16/12:30pm 23.0 17.6 12.3 51 6.1 SSW 32 44 17 24 - - 0.0
16/12:00pm 23.4 17.7 11.8 48 6.6 SSW 33 46 18 25 - - 0.0
16/11:30am 22.9 19.1 14.7 60 4.9 SSW 28 39 15 21 - - 0.0
16/11:00am 22.4 18.6 14.8 62 4.5 SSW 28 41 15 22 - - 0.0
16/10:30am 22.1 18.4 14.0 60 4.7 SSW 26 41 14 22 - - 0.0

Other Formats:

Comma delimited format used in spreadsheet applications
http://www.bom.gov.au/fwo/IDW60801/IDW60801.94614.axf

JavaScript Object Notation format (JSON) in row-major order
http://www.bom.gov.au/fwo/IDW60801/IDW60801.94614.json